Time;durP1;ratioP1;P1;durP2;ratioP2;P2;SDS_P1;SDS_P2;PMS_P1;PMS_P2;Temp;Humidity;BMP_temperature;BMP_pressure;BME280_temperature;BME280_humidity;BME280_pressure;Samples;Min_cycle;Max_cycle;Signal;HPM_P1;HPM_P2
2022/05/18 00:01:45;;;;;;;;;;;;;;;7.46;74.72;98325.19;5055258;28;19974;-63
2022/05/18 00:04:11;;;;;;;;;;;;;;;7.42;75.14;98320.66;5055341;28;20020;-63
2022/05/18 00:06:36;;;;;;;;;;;;;;;7.40;75.10;98328.00;5054754;28;19971;-63
2022/05/18 00:09:02;;;;;;;;;;;;;;;7.30;74.65;98330.50;5055207;28;19932;-63
2022/05/18 00:11:28;;;;;;;;;;;;;;;7.28;75.31;98339.44;5055153;28;19928;-63
2022/05/18 00:13:54;;;;;;;;;;;;;;;7.21;75.06;98333.53;5055132;28;19925;-63
2022/05/18 00:16:20;;;;;;;;;;;;;;;7.18;74.94;98338.50;5055082;28;19929;-63
2022/05/18 00:18:46;;;;;;;;;;;;;;;7.11;75.52;98341.28;5053158;28;19931;-63
2022/05/18 00:21:11;;;;;;;;;;;;;;;7.05;75.24;98337.75;5055062;28;19929;-64
2022/05/18 00:23:37;;;;;;;;;;;;;;;7.01;75.16;98341.94;5054875;28;19931;-62
2022/05/18 00:26:02;;;;;;;;;;;;;;;7.01;74.97;98344.56;5033105;28;19931;-63
2022/05/18 00:28:28;;;;;;;;;;;;;;;7.00;75.17;98355.31;5033405;28;19932;-63
2022/05/18 00:30:54;;;;;;;;;;;;;;;6.96;75.21;98352.38;5034645;28;19936;-62
2022/05/18 00:33:19;;;;;;;;;;;;;;;6.91;75.21;98352.31;5033335;28;19928;-61
2022/05/18 00:35:45;;;;;;;;;;;;;;;6.90;75.33;98352.53;5034854;28;19964;-62
2022/05/18 00:38:11;;;;;;;;;;;;;;;6.89;74.81;98356.22;5045861;28;19929;-63
2022/05/18 00:40:37;;;;;;;;;;;;;;;6.88;74.79;98359.88;5054292;28;19928;-63
2022/05/18 00:43:03;;;;;;;;;;;;;;;6.94;74.81;98356.28;5052967;28;19925;-62
2022/05/18 00:45:29;;;;;;;;;;;;;;;6.97;74.46;98356.63;5053960;28;19928;-65
2022/05/18 00:47:54;;;;;;;;;;;;;;;7.02;74.25;98361.16;5053818;28;19975;-63
2022/05/18 00:50:19;;;;;;;;;;;;;;;7.04;74.03;98361.75;5054817;28;19931;-63
2022/05/18 00:52:54;;;;;;;;;;;;;;;7.03;74.03;98363.56;5053145;28;20015;-63
2022/05/18 00:55:20;;;;;;;;;;;;;;;7.00;73.97;98360.59;5036361;28;19971;-64
2022/05/18 00:57:47;;;;;;;;;;;;;;;6.98;74.12;98363.50;5053174;28;19933;-63
2022/05/18 01:00:13;;;;;;;;;;;;;;;7.04;73.70;98374.91;5052986;28;19925;-63
2022/05/18 01:02:40;;;;;;;;;;;;;;;7.09;73.89;98367.09;5052802;28;19928;-63
2022/05/18 01:05:07;;;;;;;;;;;;;;;7.12;73.23;98371.88;5052876;28;19924;-63
2022/05/18 01:07:34;;;;;;;;;;;;;;;7.16;72.85;98369.56;5053009;28;19929;-60
2022/05/18 01:10:00;;;;;;;;;;;;;;;7.18;72.97;98375.41;5052442;28;19924;-63
2022/05/18 01:12:25;;;;;;;;;;;;;;;7.19;73.00;98379.63;5053987;28;20412;-62
2022/05/18 01:14:54;;;;;;;;;;;;;;;7.25;72.48;98376.81;5054139;28;19928;-61
2022/05/18 01:17:20;;;;;;;;;;;;;;;7.28;72.75;98389.53;5053632;28;19932;-63
2022/05/18 01:19:47;;;;;;;;;;;;;;;7.29;73.00;98392.94;5053668;28;20425;-60
2022/05/18 01:22:22;;;;;;;;;;;;;;;7.33;72.67;98386.19;5052381;28;20386;-63
2022/05/18 01:25:00;;;;;;;;;;;;;;;7.42;72.63;98387.38;5053175;28;19987;-63
2022/05/18 01:27:25;;;;;;;;;;;;;;;7.52;72.14;98389.34;5053719;28;20023;-62
2022/05/18 01:29:52;;;;;;;;;;;;;;;7.72;71.27;98399.41;5052143;28;20597;-63
2022/05/18 01:32:18;;;;;;;;;;;;;;;7.99;70.69;98401.34;5053647;28;19936;-61
2022/05/18 01:34:43;;;;;;;;;;;;;;;8.18;69.20;98405.28;5052251;28;20298;-61
2022/05/18 01:37:10;;;;;;;;;;;;;;;8.46;68.50;98404.31;5052150;28;19929;-63
2022/05/18 01:39:38;;;;;;;;;;;;;;;8.68;67.93;98404.28;5053005;28;19931;-62
2022/05/18 01:42:06;;;;;;;;;;;;;;;8.95;66.47;98406.13;5052005;28;19975;-62
2022/05/18 01:44:35;;;;;;;;;;;;;;;9.20;65.82;98408.19;5053569;28;19964;-63
2022/05/18 01:47:01;;;;;;;;;;;;;;;9.44;64.52;98413.91;5035293;28;19944;-62
2022/05/18 01:49:26;;;;;;;;;;;;;;;9.56;63.71;98419.84;5051858;28;19925;-63
2022/05/18 01:51:53;;;;;;;;;;;;;;;9.52;64.55;98424.81;5053015;28;20428;-62
2022/05/18 01:54:19;;;;;;;;;;;;;;;9.53;64.45;98425.66;5053407;28;19925;-63
2022/05/18 01:56:44;;;;;;;;;;;;;;;9.43;64.49;98426.34;5052813;28;19935;-62
2022/05/18 01:59:10;;;;;;;;;;;;;;;9.35;64.05;98432.09;5052688;28;19944;-63
2022/05/18 02:01:36;;;;;;;;;;;;;;;9.58;63.64;98435.44;5053073;28;20369;-62
2022/05/18 02:04:01;;;;;;;;;;;;;;;9.71;62.81;98440.31;5053175;28;19985;-62
2022/05/18 02:06:29;;;;;;;;;;;;;;;9.79;62.26;98447.75;5053022;28;19928;-62
2022/05/18 02:08:55;;;;;;;;;;;;;;;9.76;62.32;98441.16;5051324;28;19932;-62
2022/05/18 02:11:20;;;;;;;;;;;;;;;9.78;62.27;98444.31;5051409;28;19933;-62
2022/05/18 02:13:46;;;;;;;;;;;;;;;9.71;62.23;98453.56;5051030;28;20342;-63
2022/05/18 02:16:12;;;;;;;;;;;;;;;9.77;61.67;98455.97;5051028;28;19935;-64
2022/05/18 02:18:37;;;;;;;;;;;;;;;9.82;60.85;98460.47;5052722;28;19925;-63
2022/05/18 02:21:03;;;;;;;;;;;;;;;10.06;60.05;98455.63;5052430;28;19928;-64
2022/05/18 02:23:29;;;;;;;;;;;;;;;10.39;58.71;98469.59;5052353;28;19990;-61
2022/05/18 02:25:55;;;;;;;;;;;;;;;10.78;58.70;98469.19;5051881;28;20378;-62
2022/05/18 02:28:20;;;;;;;;;;;;;;;10.98;56.86;98471.91;5052507;28;19968;-63
2022/05/18 02:30:46;;;;;;;;;;;;;;;11.28;56.63;98473.00;5052342;28;20054;-62
2022/05/18 02:33:11;;;;;;;;;;;;;;;11.66;54.57;98482.31;5034365;28;20436;-63
2022/05/18 02:35:40;;;;;;;;;;;;;;;11.71;54.46;98476.22;5018285;28;19935;-63
2022/05/18 02:38:06;;;;;;;;;;;;;;;11.69;54.19;98484.44;5035050;28;19950;-63
2022/05/18 02:40:32;;;;;;;;;;;;;;;11.88;53.62;98479.38;5052485;28;19929;-62
2022/05/18 02:42:57;;;;;;;;;;;;;;;12.04;53.33;98496.09;5051971;28;20459;-61
2022/05/18 02:45:23;;;;;;;;;;;;;;;12.06;52.70;98486.00;5051993;28;20427;-62
2022/05/18 02:47:48;;;;;;;;;;;;;;;11.98;52.35;98492.66;5052088;28;19935;-62
2022/05/18 02:50:14;;;;;;;;;;;;;;;12.23;51.57;98491.78;5052513;28;20397;-62
2022/05/18 02:52:39;;;;;;;;;;;;;;;12.48;51.40;98498.13;5052053;28;19928;-61
2022/05/18 02:57:50;;;;;;;;;;;;;;;12.84;49.86;98497.97;5051902;28;20027;-62
2022/05/18 03:00:17;;;;;;;;;;;;;;;13.06;49.13;98500.22;5052061;28;19964;-62
2022/05/18 03:02:43;;;;;;;;;;;;;;;12.68;49.83;98510.56;5050570;28;19929;-63
2022/05/18 03:05:08;;;;;;;;;;;;;;;12.03;51.60;98521.09;5052238;28;19931;-62
2022/05/18 03:07:34;;;;;;;;;;;;;;;11.76;51.38;98516.78;5051737;28;20015;-63
2022/05/18 03:09:59;;;;;;;;;;;;;;;11.39;52.32;98511.75;5052181;28;19960;-63
2022/05/18 03:12:25;;;;;;;;;;;;;;;11.82;51.21;98521.06;5051883;28;19928;-63
2022/05/18 03:14:50;;;;;;;;;;;;;;;12.13;50.44;98523.72;5050710;28;19928;-62
2022/05/18 03:17:16;;;;;;;;;;;;;;;12.48;49.77;98522.03;5051088;28;20422;-62
2022/05/18 03:19:41;;;;;;;;;;;;;;;12.93;49.00;98520.25;5051909;28;20031;-63
2022/05/18 03:24:55;;;;;;;;;;;;;;;13.02;48.09;98536.44;5042342;28;19936;-62
2022/05/18 03:27:21;;;;;;;;;;;;;;;13.25;47.59;98530.50;5056044;28;19963;-62
2022/05/18 03:29:46;;;;;;;;;;;;;;;13.01;48.03;98537.53;5055648;28;20019;-62
2022/05/18 03:32:12;;;;;;;;;;;;;;;13.17;46.95;98531.03;5055301;28;20028;-62
2022/05/18 03:34:37;;;;;;;;;;;;;;;13.27;47.23;98533.69;5056036;28;19924;-64
2022/05/18 03:37:03;;;;;;;;;;;;;;;13.22;46.36;98541.66;5055639;28;20290;-63
2022/05/18 03:39:28;;;;;;;;;;;;;;;13.11;47.05;98535.59;5055863;28;20002;-62
2022/05/18 03:41:56;;;;;;;;;;;;;;;13.06;46.73;98543.63;5055137;28;19940;-62
2022/05/18 03:44:22;;;;;;;;;;;;;;;13.02;47.15;98541.75;5054205;28;19925;-63
2022/05/18 03:46:48;;;;;;;;;;;;;;;13.21;46.97;98542.75;5054897;28;20400;-63
2022/05/18 03:49:13;;;;;;;;;;;;;;;13.05;46.94;98554.53;5054240;28;19929;-63
2022/05/18 03:51:39;;;;;;;;;;;;;;;13.15;47.24;98549.16;5055568;28;20491;-62
2022/05/18 03:54:05;;;;;;;;;;;;;;;13.45;46.96;98552.75;5054078;28;19928;-62
2022/05/18 03:56:30;;;;;;;;;;;;;;;13.78;45.43;98556.50;5035503;28;19959;-63
2022/05/18 03:58:56;;;;;;;;;;;;;;;13.75;45.03;98560.50;5033869;28;20027;-63
2022/05/18 04:01:21;;;;;;;;;;;;;;;13.70;45.85;98549.88;5041108;28;19929;-61
2022/05/18 04:03:47;;;;;;;;;;;;;;;13.57;45.75;98564.63;5055111;28;19955;-62
2022/05/18 04:06:13;;;;;;;;;;;;;;;13.74;46.02;98558.94;5055022;28;19929;-62
2022/05/18 04:08:39;;;;;;;;;;;;;;;13.79;45.60;98569.53;5054999;28;20032;-62
2022/05/18 04:11:05;;;;;;;;;;;;;;;13.77;44.94;98579.69;5054803;28;20027;-61
2022/05/18 04:13:32;;;;;;;;;;;;;;;13.73;44.95;98577.84;5054965;28;19936;-62
2022/05/18 04:15:57;;;;;;;;;;;;;;;13.46;45.64;98580.94;5053554;28;19935;-63
2022/05/18 04:18:23;;;;;;;;;;;;;;;13.47;45.71;98583.34;5053988;28;20019;-62
2022/05/18 04:20:49;;;;;;;;;;;;;;;13.41;45.72;98584.41;5054725;28;19959;-63
2022/05/18 04:23:15;;;;;;;;;;;;;;;13.61;45.77;98580.84;5054939;28;19925;-62
2022/05/18 04:25:41;;;;;;;;;;;;;;;13.82;44.73;98590.31;5053261;28;19936;-61
2022/05/18 04:28:07;;;;;;;;;;;;;;;13.82;44.96;98590.31;5053202;28;19925;-63
2022/05/18 04:30:33;;;;;;;;;;;;;;;13.86;44.38;98591.31;5053382;28;19936;-63
2022/05/18 04:32:59;;;;;;;;;;;;;;;14.08;44.24;98593.53;5052631;28;19924;-64
2022/05/18 04:35:25;;;;;;;;;;;;;;;13.99;43.85;98597.09;5053178;28;19928;-64
2022/05/18 04:37:50;;;;;;;;;;;;;;;13.84;44.55;98596.13;5054508;28;19947;-62
2022/05/18 04:40:17;;;;;;;;;;;;;;;14.11;44.63;98615.38;5053046;28;19925;-62
2022/05/18 04:42:42;;;;;;;;;;;;;;;14.11;43.65;98602.06;5053229;28;19933;-61
2022/05/18 04:45:09;;;;;;;;;;;;;;;14.15;43.49;98597.75;5054102;28;20397;-61
2022/05/18 04:47:34;;;;;;;;;;;;;;;14.09;44.00;98600.47;5052370;28;19955;-62
2022/05/18 04:50:00;;;;;;;;;;;;;;;14.34;43.97;98593.31;5054597;28;19924;-63
2022/05/18 04:52:25;;;;;;;;;;;;;;;14.41;43.58;98603.66;5054291;28;19928;-62
2022/05/18 04:54:51;;;;;;;;;;;;;;;14.45;43.31;98610.03;5054044;28;19991;-61
2022/05/18 04:57:17;;;;;;;;;;;;;;;14.33;43.69;98610.41;5054163;28;19928;-62
2022/05/18 04:59:42;;;;;;;;;;;;;;;14.05;44.04;98626.06;5054312;28;20015;-61
2022/05/18 05:02:08;;;;;;;;;;;;;;;13.80;44.35;98613.75;5053691;28;19936;-59
2022/05/18 05:04:35;;;;;;;;;;;;;;;13.58;44.67;98608.81;5051927;28;19971;-61
2022/05/18 05:07:01;;;;;;;;;;;;;;;13.53;45.50;98610.72;5053734;28;19982;-64
2022/05/18 05:09:27;;;;;;;;;;;;;;;13.62;46.14;98612.53;5054032;28;20348;-62
2022/05/18 05:11:52;;;;;;;;;;;;;;;13.56;46.35;98623.47;5052788;28;20346;-64
2022/05/18 05:14:18;;;;;;;;;;;;;;;13.53;45.61;98621.34;5068283;28;20355;-62
2022/05/18 05:16:44;;;;;;;;;;;;;;;13.33;46.23;98620.41;5072638;28;19928;-62
2022/05/18 05:19:10;;;;;;;;;;;;;;;13.22;46.91;98621.50;5034320;28;20397;-61
2022/05/18 05:21:44;;;;;;;;;;;;;;;13.00;46.94;98629.03;5035277;28;19944;-61
2022/05/18 05:24:15;;;;;;;;;;;;;;;12.95;46.77;98627.19;5033909;28;19971;-62
2022/05/18 05:26:40;;;;;;;;;;;;;;;12.87;47.44;98625.09;5047393;28;19990;-61
2022/05/18 05:29:06;;;;;;;;;;;;;;;12.88;47.88;98618.69;5020674;28;19925;-63
2022/05/18 05:31:32;;;;;;;;;;;;;;;12.77;48.13;98636.56;5052719;28;20358;-62
2022/05/18 05:33:58;;;;;;;;;;;;;;;12.55;47.92;98633.41;5073119;28;19925;-62
2022/05/18 05:36:23;;;;;;;;;;;;;;;12.57;48.37;98629.41;5066461;28;19936;-60
2022/05/18 05:38:49;;;;;;;;;;;;;;;12.60;48.66;98630.75;5062849;28;20335;-61
2022/05/18 05:41:15;;;;;;;;;;;;;;;12.59;48.40;98650.41;5072772;28;20313;-61
2022/05/18 05:43:41;;;;;;;;;;;;;;;12.41;48.23;98641.13;5073170;28;19936;-62
2022/05/18 05:46:09;;;;;;;;;;;;;;;12.56;49.38;98635.81;5072837;28;19937;-62
2022/05/18 05:48:36;;;;;;;;;;;;;;;12.61;48.42;98654.38;5071012;28;19946;-62
2022/05/18 05:51:02;;;;;;;;;;;;;;;12.55;47.03;98647.47;5038763;28;20462;-62
2022/05/18 05:53:28;;;;;;;;;;;;;;;12.37;46.52;98645.38;5072908;28;20027;-62
2022/05/18 05:55:54;;;;;;;;;;;;;;;12.23;46.30;98637.13;5072705;28;20023;-61
2022/05/18 05:58:19;;;;;;;;;;;;;;;12.31;45.88;98641.94;5055040;28;19935;-63
2022/05/18 06:00:45;;;;;;;;;;;;;;;12.36;46.15;98649.91;5054747;28;20392;-63
2022/05/18 06:03:11;;;;;;;;;;;;;;;12.46;46.72;98655.19;5072965;28;19935;-61
2022/05/18 06:05:38;;;;;;;;;;;;;;;12.33;46.80;98649.66;5071354;28;19967;-63
2022/05/18 06:08:03;;;;;;;;;;;;;;;12.27;46.44;98662.94;5072753;28;19947;-62
2022/05/18 06:10:29;;;;;;;;;;;;;;;12.15;45.63;98661.59;5071653;28;19928;-62
2022/05/18 06:12:54;;;;;;;;;;;;;;;12.10;45.38;98653.63;5072376;28;19924;-62
2022/05/18 06:15:20;;;;;;;;;;;;;;;12.17;46.09;98646.97;5071585;28;19974;-63
2022/05/18 06:17:46;;;;;;;;;;;;;;;12.39;45.81;98644.06;5069944;28;19932;-63
2022/05/18 06:20:12;;;;;;;;;;;;;;;12.30;44.94;98658.94;5051241;28;19929;-62
2022/05/18 06:22:37;;;;;;;;;;;;;;;12.20;45.68;98656.28;5052219;28;19975;-62
2022/05/18 06:25:03;;;;;;;;;;;;;;;12.28;45.69;98653.88;5058150;28;20369;-62
2022/05/18 06:27:29;;;;;;;;;;;;;;;12.27;45.56;98656.81;5072413;28;20305;-62
2022/05/18 06:29:54;;;;;;;;;;;;;;;12.37;46.10;98671.97;5054553;28;19932;-63
2022/05/18 06:32:20;;;;;;;;;;;;;;;12.27;44.36;98667.44;5072073;28;19932;-63
2022/05/18 06:34:45;;;;;;;;;;;;;;;12.30;44.15;98666.13;5072489;28;19930;-62
2022/05/18 06:37:14;;;;;;;;;;;;;;;12.47;44.47;98661.31;5072067;28;19933;-63
2022/05/18 06:39:40;;;;;;;;;;;;;;;12.50;43.72;98672.22;5071152;28;19924;-61
2022/05/18 06:42:05;;;;;;;;;;;;;;;12.27;42.67;98678.88;5070757;28;19935;-61
2022/05/18 06:44:33;;;;;;;;;;;;;;;12.38;43.15;98700.94;5071017;28;19931;-61
2022/05/18 06:46:59;;;;;;;;;;;;;;;12.32;42.59;98669.28;5052262;28;19929;-61
2022/05/18 06:49:26;;;;;;;;;;;;;;;12.29;41.08;98675.94;5050815;28;20455;-64
2022/05/18 06:51:52;;;;;;;;;;;;;;;12.37;40.83;98690.56;5051545;28;19933;-61
2022/05/18 06:54:17;;;;;;;;;;;;;;;12.41;38.80;98692.44;5050778;28;19920;-61
2022/05/18 06:56:43;;;;;;;;;;;;;;;12.46;40.44;98673.81;5051832;28;20422;-61
2022/05/18 06:59:09;;;;;;;;;;;;;;;12.65;41.23;98674.06;5051173;28;19925;-62
2022/05/18 07:01:35;;;;;;;;;;;;;;;12.67;41.51;98677.25;5051918;28;20023;-61
2022/05/18 07:04:00;;;;;;;;;;;;;;;12.75;42.03;98678.56;5051586;28;20414;-62
2022/05/18 07:06:28;;;;;;;;;;;;;;;12.92;41.85;98678.28;5050140;28;19963;-60
2022/05/18 07:08:55;;;;;;;;;;;;;;;12.89;41.68;98703.56;5051155;28;19935;-60
2022/05/18 07:11:22;;;;;;;;;;;;;;;12.70;41.39;98683.88;5051163;28;19932;-62
2022/05/18 07:13:51;;;;;;;;;;;;;;;12.58;41.76;98675.41;5033787;28;19925;-61
2022/05/18 07:16:23;;;;;;;;;;;;;;;12.44;41.74;98678.63;5049425;28;19929;-63
2022/05/18 07:18:49;;;;;;;;;;;;;;;12.51;40.67;98691.63;5048759;28;20047;-62
2022/05/18 07:21:15;;;;;;;;;;;;;;;12.57;41.17;98679.13;5047662;28;19936;-62
2022/05/18 07:23:41;;;;;;;;;;;;;;;12.64;40.97;98692.94;5050462;28;19929;-61
2022/05/18 07:26:07;;;;;;;;;;;;;;;12.61;40.44;98685.50;5049110;28;19929;-61
2022/05/18 07:28:32;;;;;;;;;;;;;;;12.62;41.25;98709.19;5048469;28;20298;-61
2022/05/18 07:30:58;;;;;;;;;;;;;;;12.76;40.43;98677.50;5049241;28;19936;-62
2022/05/18 07:33:24;;;;;;;;;;;;;;;12.87;40.21;98680.94;5048894;28;19940;-62
2022/05/18 07:35:50;;;;;;;;;;;;;;;12.76;39.88;98687.34;5056177;28;19935;-63
2022/05/18 07:38:18;;;;;;;;;;;;;;;12.76;39.88;98677.50;5038066;28;19925;-62
2022/05/18 07:40:43;;;;;;;;;;;;;;;12.76;40.79;98717.38;5032899;28;19933;-61
2022/05/18 07:43:09;;;;;;;;;;;;;;;12.73;39.79;98712.59;5056462;28;19924;-62
2022/05/18 07:45:35;;;;;;;;;;;;;;;12.62;39.84;98692.44;5067631;28;19932;-62
2022/05/18 07:48:01;;;;;;;;;;;;;;;12.78;39.93;98686.00;5053196;28;19931;-63
2022/05/18 07:50:26;;;;;;;;;;;;;;;12.80;40.50;98691.88;5030332;28;20337;-62
2022/05/18 07:52:52;;;;;;;;;;;;;;;12.89;40.39;98703.56;5048768;28;19950;-62
2022/05/18 07:55:18;;;;;;;;;;;;;;;13.01;40.43;98705.13;5051265;28;19925;-61
2022/05/18 07:57:44;;;;;;;;;;;;;;;13.12;39.83;98688.06;5050437;28;19928;-62
2022/05/18 08:00:11;;;;;;;;;;;;;;;13.11;39.11;98689.13;5050799;28;19947;-62
2022/05/18 08:02:37;;;;;;;;;;;;;;;13.14;40.35;98688.59;5050855;28;20023;-63
2022/05/18 08:05:03;;;;;;;;;;;;;;;13.19;39.55;98715.19;5061593;28;20023;-62
2022/05/18 08:07:28;;;;;;;;;;;;;;;13.25;39.61;98742.59;5047782;28;19928;-62
2022/05/18 08:15:22;;;;;;;;;;;;;;;13.05;40.15;98719.47;5054882;28;19925;-63
2022/05/18 08:17:48;;;;;;;;;;;;;;;13.13;39.81;98706.41;5053129;28;19936;-64
2022/05/18 08:20:16;;;;;;;;;;;;;;;13.13;39.73;98724.25;5053123;28;19931;-62
2022/05/18 08:22:42;;;;;;;;;;;;;;;13.21;40.58;98728.19;5052110;28;19933;-63
2022/05/18 08:25:09;;;;;;;;;;;;;;;13.32;40.97;98711.19;5050543;28;19925;-63
2022/05/18 08:27:35;;;;;;;;;;;;;;;13.44;40.01;98719.66;5051444;28;19932;-63
2022/05/18 08:30:01;;;;;;;;;;;;;;;13.25;39.49;98735.41;5054274;28;19932;-62
2022/05/18 08:32:29;;;;;;;;;;;;;;;13.40;38.99;98713.28;5051946;28;19928;-64
2022/05/18 08:34:54;;;;;;;;;;;;;;;13.30;38.36;98739.94;5051841;28;19925;-62
2022/05/18 08:37:22;;;;;;;;;;;;;;;13.35;38.80;98708.78;5052695;28;20015;-63
2022/05/18 08:39:49;;;;;;;;;;;;;;;13.20;40.91;98719.44;5054814;28;19977;-62
2022/05/18 08:42:14;;;;;;;;;;;;;;;13.13;41.51;98740.22;5053990;28;19928;-61
2022/05/18 08:44:40;;;;;;;;;;;;;;;13.28;40.21;98721.56;5054262;28;19932;-62
2022/05/18 08:47:11;;;;;;;;;;;;;;;13.27;39.01;98711.22;5035159;28;19929;-62
2022/05/18 08:49:50;;;;;;;;;;;;;;;13.40;38.97;98718.59;5051746;28;20074;-62
2022/05/18 08:52:15;;;;;;;;;;;;;;;13.49;38.49;98698.31;5051277;28;19929;-62
2022/05/18 08:54:48;;;;;;;;;;;;;;;13.41;38.94;98706.88;5053616;28;19956;-61
2022/05/18 08:57:22;;;;;;;;;;;;;;;13.53;39.61;98706.56;5052039;28;19983;-61
2022/05/18 08:59:49;;;;;;;;;;;;;;;13.66;40.31;98713.97;5053845;28;19925;-62
2022/05/18 09:02:16;;;;;;;;;;;;;;;13.70;39.83;98715.00;5052656;28;19928;-62
2022/05/18 09:04:49;;;;;;;;;;;;;;;13.68;39.85;98698.53;5054085;28;19929;-61
2022/05/18 09:07:15;;;;;;;;;;;;;;;13.73;40.14;98703.00;5053478;28;19983;-61
2022/05/18 09:12:36;;;;;;;;;;;;;;;13.78;38.91;98727.75;5052671;28;19932;-61
2022/05/18 09:15:03;;;;;;;;;;;;;;;13.72;38.71;98712.09;5052227;28;19929;-62
2022/05/18 09:17:33;;;;;;;;;;;;;;;13.85;39.58;98714.94;5052471;28;20440;-62
2022/05/18 09:20:15;;;;;;;;;;;;;;;13.82;39.41;98733.31;5051225;28;20057;-61
2022/05/18 09:22:59;;;;;;;;;;;;;;;13.76;39.77;98715.78;5051012;28;19936;-61
2022/05/18 09:25:27;;;;;;;;;;;;;;;13.87;39.03;98720.00;5052603;28;20055;-64
2022/05/18 09:28:00;;;;;;;;;;;;;;;13.90;38.99;98703.44;5052549;28;19982;-61
2022/05/18 09:30:26;;;;;;;;;;;;;;;13.95;39.01;98710.63;5052663;28;19936;-63
2022/05/18 09:32:51;;;;;;;;;;;;;;;13.93;39.03;98728.75;5052339;28;19929;-63
2022/05/18 09:35:36;;;;;;;;;;;;;;;14.01;39.60;98714.84;5053263;28;19928;-63
2022/05/18 09:38:03;;;;;;;;;;;;;;;14.08;39.82;98716.13;5050748;28;19968;-63
2022/05/18 09:40:32;;;;;;;;;;;;;;;14.31;39.17;98706.63;5052348;28;20416;-63
2022/05/18 09:43:00;;;;;;;;;;;;;;;14.40;38.65;98700.72;5051715;28;19964;-61
2022/05/18 09:45:26;;;;;;;;;;;;;;;14.64;38.98;98701.59;5051241;28;20384;-62
2022/05/18 09:48:00;;;;;;;;;;;;;;;14.84;38.43;98703.28;5034426;28;19931;-62
2022/05/18 09:50:26;;;;;;;;;;;;;;;14.66;38.65;98712.00;5052156;28;19935;-64
2022/05/18 09:52:52;;;;;;;;;;;;;;;14.47;37.25;98742.00;5050976;28;19932;-61
2022/05/18 09:55:18;;;;;;;;;;;;;;;14.54;37.42;98707.03;5017929;28;20396;-63
2022/05/18 09:57:47;;;;;;;;;;;;;;;14.70;38.04;98716.47;5049677;28;19929;-62
2022/05/18 10:00:15;;;;;;;;;;;;;;;15.05;38.52;98722.56;5049305;28;19925;-62
2022/05/18 10:08:20;;;;;;;;;;;;;;;15.12;36.64;98723.03;5036713;28;19925;-62
2022/05/18 10:10:46;;;;;;;;;;;;;;;15.20;37.58;98714.38;5052397;28;19927;-61
2022/05/18 10:13:14;;;;;;;;;;;;;;;15.37;37.13;98713.94;5032708;28;19978;-63
2022/05/18 10:15:49;;;;;;;;;;;;;;;15.29;37.12;98727.13;5050991;28;20027;-62
2022/05/18 10:18:16;;;;;;;;;;;;;;;15.39;37.49;98727.81;5050173;28;19932;-62
2022/05/18 10:20:42;;;;;;;;;;;;;;;15.68;37.08;98713.59;5052164;28;19933;-61
2022/05/18 10:23:28;;;;;;;;;;;;;;;15.72;36.17;98719.16;5049849;28;19925;-63
2022/05/18 10:25:53;;;;;;;;;;;;;;;15.70;36.38;98711.41;5051473;28;19929;-62
2022/05/18 10:28:21;;;;;;;;;;;;;;;15.41;36.78;98738.19;5051975;28;19924;-62
2022/05/18 10:30:57;;;;;;;;;;;;;;;15.04;36.40;98720.97;5051578;28;19936;-61
2022/05/18 10:33:25;;;;;;;;;;;;;;;14.99;37.19;98721.03;5050371;28;20002;-64
2022/05/18 10:35:54;;;;;;;;;;;;;;;15.19;36.33;98733.38;5047916;28;20445;-64
2022/05/18 10:38:30;;;;;;;;;;;;;;;15.39;35.50;98719.78;5054371;28;19951;-65
2022/05/18 10:41:04;;;;;;;;;;;;;;;15.66;35.50;98721.06;5050440;28;19929;-63
2022/05/18 10:43:31;;;;;;;;;;;;;;;15.70;35.53;98737.34;5051059;28;19974;-64
2022/05/18 10:45:59;;;;;;;;;;;;;;;15.76;36.88;98706.81;5051965;28;19975;-67
2022/05/18 10:48:27;;;;;;;;;;;;;;;15.90;36.32;98716.50;5050849;28;20309;-64
2022/05/18 10:51:12;;;;;;;;;;;;;;;15.68;35.20;98726.97;5051567;28;20018;-63
2022/05/18 10:53:39;;;;;;;;;;;;;;;15.56;35.31;98716.66;5050194;28;19925;-65
2022/05/18 10:56:08;;;;;;;;;;;;;;;15.68;35.51;98713.59;5049479;28;19975;-64
2022/05/18 10:58:44;;;;;;;;;;;;;;;15.90;35.15;98721.84;5050294;28;20329;-62
2022/05/18 11:01:09;;;;;;;;;;;;;;;15.95;34.93;98702.28;5049681;28;19928;-65
2022/05/18 11:03:44;;;;;;;;;;;;;;;16.06;35.47;98709.06;5047821;28;19932;-64
2022/05/18 11:06:13;;;;;;;;;;;;;;;16.29;36.01;98706.56;5049572;28;20418;-62
2022/05/18 11:08:38;;;;;;;;;;;;;;;16.18;35.49;98713.97;5048999;28;19932;-62
2022/05/18 11:11:07;;;;;;;;;;;;;;;16.15;35.39;98711.06;5050779;28;19929;-64
2022/05/18 11:13:45;;;;;;;;;;;;;;;16.13;36.24;98719.41;5050821;28;20011;-63
2022/05/18 11:16:15;;;;;;;;;;;;;;;16.21;36.35;98726.75;5048005;28;19935;-63
2022/05/18 11:18:44;;;;;;;;;;;;;;;16.23;35.26;98715.75;5050894;28;19987;-64
2022/05/18 11:21:15;;;;;;;;;;;;;;;16.31;34.31;98725.81;5050299;28;19936;-63
2022/05/18 11:23:41;;;;;;;;;;;;;;;16.15;34.43;98721.75;5050984;28;20014;-63
2022/05/18 11:26:22;;;;;;;;;;;;;;;16.26;33.75;98731.22;5049550;28;19956;-64
2022/05/18 11:28:48;;;;;;;;;;;;;;;16.21;33.62;98715.28;5049954;28;19925;-64
2022/05/18 11:31:20;;;;;;;;;;;;;;;16.11;34.54;98733.03;5049899;28;19929;-63
2022/05/18 11:33:55;;;;;;;;;;;;;;;16.14;33.12;98723.66;5049947;28;19931;-63
2022/05/18 11:36:41;;;;;;;;;;;;;;;16.25;33.42;98709.03;5049862;28;19928;-64
2022/05/18 11:39:10;;;;;;;;;;;;;;;16.33;33.48;98716.41;5029246;28;19966;-63
2022/05/18 11:41:35;;;;;;;;;;;;;;;16.25;33.32;98721.63;5049035;28;19929;-64
2022/05/18 11:44:05;;;;;;;;;;;;;;;16.25;32.91;98727.75;5051465;28;20448;-65
2022/05/18 11:46:38;;;;;;;;;;;;;;;16.16;32.90;98739.41;5051963;28;20524;-67
2022/05/18 11:49:04;;;;;;;;;;;;;;;16.20;32.85;98727.84;5054169;28;19931;-64
2022/05/18 11:51:44;;;;;;;;;;;;;;;16.16;33.95;98720.69;5053615;28;19928;-63
2022/05/18 11:54:10;;;;;;;;;;;;;;;16.21;34.41;98716.06;5053028;28;19924;-63
2022/05/18 11:56:48;;;;;;;;;;;;;;;16.32;33.34;98722.03;5052962;28;20310;-64
2022/05/18 11:59:30;;;;;;;;;;;;;;;16.19;33.78;98728.94;5053059;28;19924;-62
2022/05/18 12:02:12;;;;;;;;;;;;;;;16.07;34.21;98723.22;5054063;28;19948;-64
2022/05/18 12:04:57;;;;;;;;;;;;;;;16.03;34.10;98724.88;5055052;28;20363;-64
2022/05/18 12:07:22;;;;;;;;;;;;;;;15.92;35.18;98726.91;5053326;28;19929;-62
2022/05/18 12:09:48;;;;;;;;;;;;;;;15.88;35.20;98733.91;5041631;28;19932;-63
2022/05/18 12:12:17;;;;;;;;;;;;;;;15.82;35.84;98737.72;5053940;28;19929;-63
2022/05/18 12:14:48;;;;;;;;;;;;;;;15.85;35.40;98732.63;5053277;28;20294;-65
2022/05/18 12:17:15;;;;;;;;;;;;;;;15.80;35.33;98739.91;5051846;28;19936;-66
2022/05/18 12:19:40;;;;;;;;;;;;;;;15.75;35.40;98731.94;5051018;28;19940;-65
2022/05/18 12:22:32;;;;;;;;;;;;;;;15.73;36.08;98726.09;5051618;28;20039;-66
2022/05/18 12:24:58;;;;;;;;;;;;;;;15.77;37.35;98735.94;5053881;28;19978;-64
2022/05/18 12:27:29;;;;;;;;;;;;;;;15.72;37.99;98735.97;5050127;28;19971;-63
2022/05/18 12:30:02;;;;;;;;;;;;;;;15.52;37.48;98736.19;5035695;28;19947;-63
2022/05/18 12:32:29;;;;;;;;;;;;;;;15.53;36.77;98725.25;5053084;28;20023;-63
2022/05/18 12:35:08;;;;;;;;;;;;;;;15.63;36.65;98730.44;5072605;28;20362;-64
2022/05/18 12:37:35;;;;;;;;;;;;;;;15.83;36.66;98726.75;5071342;28;19928;-60
2022/05/18 12:40:06;;;;;;;;;;;;;;;15.94;36.82;98723.94;5052368;28;19924;-65
2022/05/18 12:42:33;;;;;;;;;;;;;;;15.98;35.91;98711.59;5053500;28;19937;-64
2022/05/18 12:45:10;;;;;;;;;;;;;;;15.88;36.30;98737.38;5053131;28;19925;-65
2022/05/18 12:47:42;;;;;;;;;;;;;;;15.86;35.51;98725.38;5051298;28;19928;-65
2022/05/18 12:50:19;;;;;;;;;;;;;;;15.52;35.39;98726.31;5050964;28;19925;-65
2022/05/18 12:53:01;;;;;;;;;;;;;;;15.47;35.90;98734.41;5035099;28;19935;-63
2022/05/18 12:55:40;;;;;;;;;;;;;;;15.38;36.52;98731.56;5053340;28;19929;-63
2022/05/18 12:58:10;;;;;;;;;;;;;;;15.28;36.97;98737.00;5049855;28;20354;-63
2022/05/18 13:01:02;;;;;;;;;;;;;;;15.07;38.02;98735.63;5052684;28;20321;-63
2022/05/18 13:03:36;;;;;;;;;;;;;;;15.04;37.93;98734.31;5049153;28;20032;-61
2022/05/18 13:06:07;;;;;;;;;;;;;;;15.04;38.08;98736.19;5049926;28;19929;-65
2022/05/18 13:08:35;;;;;;;;;;;;;;;14.97;38.89;98740.00;5050279;28;19924;-63
2022/05/18 13:11:19;;;;;;;;;;;;;;;14.97;38.98;98741.84;5052316;28;20417;-63